sensor_id;sensor_type;location;lat;lon;timestamp;P1;durP1;ratioP1;P2;durP2;ratioP2
17171;SDS011;8701;50.150;8.756;2022-10-16T00:01:11;5.93;;;4.20;;
17171;SDS011;8701;50.150;8.756;2022-10-16T00:05:19;5.60;;;4.07;;
17171;SDS011;8701;50.150;8.756;2022-10-16T00:09:21;4.20;;;2.90;;
17171;SDS011;8701;50.150;8.756;2022-10-16T00:13:26;6.60;;;3.40;;
17171;SDS011;8701;50.150;8.756;2022-10-16T00:17:30;5.47;;;4.43;;
17171;SDS011;8701;50.150;8.756;2022-10-16T00:21:32;5.03;;;3.50;;
17171;SDS011;8701;50.150;8.756;2022-10-16T00:25:35;3.80;;;3.50;;
17171;SDS011;8701;50.150;8.756;2022-10-16T00:29:38;12.20;;;3.90;;
17171;SDS011;8701;50.150;8.756;2022-10-16T00:33:41;4.30;;;3.90;;
17171;SDS011;8701;50.150;8.756;2022-10-16T00:37:43;4.10;;;3.70;;
17171;SDS011;8701;50.150;8.756;2022-10-16T00:41:46;4.37;;;3.53;;
17171;SDS011;8701;50.150;8.756;2022-10-16T00:45:49;6.93;;;4.03;;
17171;SDS011;8701;50.150;8.756;2022-10-16T00:49:53;3.57;;;3.27;;
17171;SDS011;8701;50.150;8.756;2022-10-16T00:54:01;7.43;;;3.63;;
17171;SDS011;8701;50.150;8.756;2022-10-16T00:58:05;5.80;;;4.33;;
17171;SDS011;8701;50.150;8.756;2022-10-16T01:02:11;7.70;;;4.03;;
17171;SDS011;8701;50.150;8.756;2022-10-16T01:06:24;8.17;;;3.40;;
17171;SDS011;8701;50.150;8.756;2022-10-16T01:10:37;5.10;;;3.30;;
17171;SDS011;8701;50.150;8.756;2022-10-16T01:14:43;4.63;;;3.77;;
17171;SDS011;8701;50.150;8.756;2022-10-16T01:18:52;3.80;;;3.37;;
17171;SDS011;8701;50.150;8.756;2022-10-16T01:23:01;3.90;;;2.80;;
17171;SDS011;8701;50.150;8.756;2022-10-16T01:27:11;9.00;;;3.70;;
17171;SDS011;8701;50.150;8.756;2022-10-16T01:31:16;4.70;;;2.50;;
17171;SDS011;8701;50.150;8.756;2022-10-16T01:35:22;3.50;;;2.33;;
17171;SDS011;8701;50.150;8.756;2022-10-16T01:39:28;3.20;;;2.40;;
17171;SDS011;8701;50.150;8.756;2022-10-16T01:43:37;2.13;;;2.00;;
17171;SDS011;8701;50.150;8.756;2022-10-16T01:47:42;2.50;;;2.30;;
17171;SDS011;8701;50.150;8.756;2022-10-16T01:51:46;3.13;;;2.00;;
17171;SDS011;8701;50.150;8.756;2022-10-16T01:55:50;2.53;;;2.30;;
17171;SDS011;8701;50.150;8.756;2022-10-16T01:59:58;2.80;;;2.00;;
17171;SDS011;8701;50.150;8.756;2022-10-16T02:04:15;2.13;;;1.93;;
17171;SDS011;8701;50.150;8.756;2022-10-16T02:08:20;2.80;;;2.60;;
17171;SDS011;8701;50.150;8.756;2022-10-16T02:12:26;2.80;;;2.00;;
17171;SDS011;8701;50.150;8.756;2022-10-16T02:16:35;3.57;;;2.10;;
17171;SDS011;8701;50.150;8.756;2022-10-16T02:20:40;6.30;;;2.10;;
17171;SDS011;8701;50.150;8.756;2022-10-16T02:24:51;5.63;;;2.43;;
17171;SDS011;8701;50.150;8.756;2022-10-16T02:28:59;2.07;;;1.83;;
17171;SDS011;8701;50.150;8.756;2022-10-16T02:33:07;2.03;;;1.80;;
17171;SDS011;8701;50.150;8.756;2022-10-16T02:37:11;1.67;;;1.57;;
17171;SDS011;8701;50.150;8.756;2022-10-16T02:41:14;2.60;;;1.93;;
17171;SDS011;8701;50.150;8.756;2022-10-16T02:45:17;1.57;;;1.40;;
17171;SDS011;8701;50.150;8.756;2022-10-16T02:49:21;4.57;;;1.63;;
17171;SDS011;8701;50.150;8.756;2022-10-16T02:53:23;1.73;;;1.53;;
17171;SDS011;8701;50.150;8.756;2022-10-16T02:57:25;2.53;;;1.30;;
17171;SDS011;8701;50.150;8.756;2022-10-16T03:01:27;2.60;;;1.30;;
17171;SDS011;8701;50.150;8.756;2022-10-16T03:05:31;5.70;;;1.73;;
17171;SDS011;8701;50.150;8.756;2022-10-16T03:09:33;1.30;;;1.20;;
17171;SDS011;8701;50.150;8.756;2022-10-16T03:13:36;1.40;;;1.30;;
17171;SDS011;8701;50.150;8.756;2022-10-16T03:17:38;3.10;;;1.40;;
17171;SDS011;8701;50.150;8.756;2022-10-16T03:21:41;1.90;;;1.70;;
17171;SDS011;8701;50.150;8.756;2022-10-16T03:25:44;1.60;;;1.43;;
17171;SDS011;8701;50.150;8.756;2022-10-16T03:29:46;2.00;;;1.80;;
17171;SDS011;8701;50.150;8.756;2022-10-16T03:33:48;11.70;;;1.77;;
17171;SDS011;8701;50.150;8.756;2022-10-16T03:37:52;1.70;;;1.60;;
17171;SDS011;8701;50.150;8.756;2022-10-16T03:41:54;1.70;;;1.60;;
17171;SDS011;8701;50.150;8.756;2022-10-16T03:45:57;1.93;;;1.53;;
17171;SDS011;8701;50.150;8.756;2022-10-16T03:49:59;2.13;;;1.40;;
17171;SDS011;8701;50.150;8.756;2022-10-16T03:54:02;1.33;;;1.23;;
17171;SDS011;8701;50.150;8.756;2022-10-16T03:58:05;3.07;;;1.60;;
17171;SDS011;8701;50.150;8.756;2022-10-16T04:02:07;2.00;;;1.60;;
17171;SDS011;8701;50.150;8.756;2022-10-16T04:06:09;3.43;;;1.50;;
17171;SDS011;8701;50.150;8.756;2022-10-16T04:10:13;3.37;;;1.40;;
17171;SDS011;8701;50.150;8.756;2022-10-16T04:14:15;3.53;;;1.60;;
17171;SDS011;8701;50.150;8.756;2022-10-16T04:18:17;1.40;;;1.30;;
17171;SDS011;8701;50.150;8.756;2022-10-16T04:22:20;1.63;;;1.20;;
17171;SDS011;8701;50.150;8.756;2022-10-16T04:26:24;2.73;;;2.30;;
17171;SDS011;8701;50.150;8.756;2022-10-16T04:30:26;1.50;;;1.40;;
17171;SDS011;8701;50.150;8.756;2022-10-16T04:34:28;3.80;;;1.53;;
17171;SDS011;8701;50.150;8.756;2022-10-16T04:38:31;1.70;;;1.60;;
17171;SDS011;8701;50.150;8.756;2022-10-16T04:42:35;4.10;;;1.57;;
17171;SDS011;8701;50.150;8.756;2022-10-16T04:46:37;2.47;;;1.47;;
17171;SDS011;8701;50.150;8.756;2022-10-16T04:50:39;2.70;;;1.70;;
17171;SDS011;8701;50.150;8.756;2022-10-16T04:54:42;3.10;;;1.60;;
17171;SDS011;8701;50.150;8.756;2022-10-16T04:58:47;1.40;;;1.30;;
17171;SDS011;8701;50.150;8.756;2022-10-16T05:02:49;2.40;;;2.10;;
17171;SDS011;8701;50.150;8.756;2022-10-16T05:06:51;1.80;;;1.60;;
17171;SDS011;8701;50.150;8.756;2022-10-16T05:10:53;1.93;;;1.70;;
17171;SDS011;8701;50.150;8.756;2022-10-16T05:14:57;2.33;;;1.70;;
17171;SDS011;8701;50.150;8.756;2022-10-16T05:18:59;2.00;;;1.60;;
17171;SDS011;8701;50.150;8.756;2022-10-16T05:23:02;1.80;;;1.70;;
17171;SDS011;8701;50.150;8.756;2022-10-16T05:27:04;2.00;;;1.80;;
17171;SDS011;8701;50.150;8.756;2022-10-16T05:31:08;2.60;;;1.73;;
17171;SDS011;8701;50.150;8.756;2022-10-16T05:35:11;5.23;;;2.00;;
17171;SDS011;8701;50.150;8.756;2022-10-16T05:39:15;1.70;;;1.60;;
17171;SDS011;8701;50.150;8.756;2022-10-16T05:43:17;3.43;;;1.60;;
17171;SDS011;8701;50.150;8.756;2022-10-16T05:47:21;1.60;;;1.50;;
17171;SDS011;8701;50.150;8.756;2022-10-16T05:51:23;4.50;;;1.80;;
17171;SDS011;8701;50.150;8.756;2022-10-16T05:55:26;1.70;;;1.60;;
17171;SDS011;8701;50.150;8.756;2022-10-16T05:59:28;2.37;;;2.17;;
17171;SDS011;8701;50.150;8.756;2022-10-16T06:03:32;2.20;;;2.00;;
17171;SDS011;8701;50.150;8.756;2022-10-16T06:07:34;2.03;;;1.80;;
17171;SDS011;8701;50.150;8.756;2022-10-16T06:11:37;1.87;;;1.77;;
17171;SDS011;8701;50.150;8.756;2022-10-16T06:15:39;3.57;;;2.00;;
17171;SDS011;8701;50.150;8.756;2022-10-16T06:19:44;3.00;;;1.90;;
17171;SDS011;8701;50.150;8.756;2022-10-16T06:23:47;2.30;;;2.10;;
17171;SDS011;8701;50.150;8.756;2022-10-16T06:27:50;4.43;;;1.90;;
17171;SDS011;8701;50.150;8.756;2022-10-16T06:31:52;3.07;;;1.90;;
17171;SDS011;8701;50.150;8.756;2022-10-16T06:36:00;2.10;;;2.00;;
17171;SDS011;8701;50.150;8.756;2022-10-16T06:40:03;4.93;;;2.33;;
17171;SDS011;8701;50.150;8.756;2022-10-16T06:44:08;5.60;;;3.10;;
17171;SDS011;8701;50.150;8.756;2022-10-16T06:48:11;6.77;;;3.00;;
17171;SDS011;8701;50.150;8.756;2022-10-16T06:52:14;4.67;;;3.10;;
17171;SDS011;8701;50.150;8.756;2022-10-16T06:56:18;5.73;;;3.13;;
17171;SDS011;8701;50.150;8.756;2022-10-16T07:00:22;5.20;;;3.57;;
17171;SDS011;8701;50.150;8.756;2022-10-16T07:04:24;4.43;;;3.90;;
17171;SDS011;8701;50.150;8.756;2022-10-16T07:08:30;6.50;;;3.70;;
17171;SDS011;8701;50.150;8.756;2022-10-16T07:12:32;5.50;;;4.30;;
17171;SDS011;8701;50.150;8.756;2022-10-16T07:16:35;9.30;;;3.63;;
17171;SDS011;8701;50.150;8.756;2022-10-16T07:20:38;8.43;;;4.77;;
17171;SDS011;8701;50.150;8.756;2022-10-16T07:24:42;5.10;;;4.60;;
17171;SDS011;8701;50.150;8.756;2022-10-16T07:28:47;5.17;;;4.67;;
17171;SDS011;8701;50.150;8.756;2022-10-16T07:32:49;7.57;;;4.23;;
17171;SDS011;8701;50.150;8.756;2022-10-16T07:36:51;5.87;;;4.10;;
17171;SDS011;8701;50.150;8.756;2022-10-16T07:40:58;7.50;;;4.70;;
17171;SDS011;8701;50.150;8.756;2022-10-16T07:45:02;5.80;;;4.87;;
17171;SDS011;8701;50.150;8.756;2022-10-16T07:49:05;4.93;;;4.40;;
17171;SDS011;8701;50.150;8.756;2022-10-16T07:53:07;10.00;;;4.13;;
17171;SDS011;8701;50.150;8.756;2022-10-16T07:57:11;4.77;;;3.93;;
17171;SDS011;8701;50.150;8.756;2022-10-16T08:01:19;4.30;;;3.70;;
17171;SDS011;8701;50.150;8.756;2022-10-16T08:05:22;4.90;;;3.97;;
17171;SDS011;8701;50.150;8.756;2022-10-16T08:09:24;7.17;;;4.20;;
17171;SDS011;8701;50.150;8.756;2022-10-16T08:13:27;7.80;;;3.60;;
17171;SDS011;8701;50.150;8.756;2022-10-16T08:17:30;6.60;;;4.37;;
17171;SDS011;8701;50.150;8.756;2022-10-16T08:21:32;5.20;;;3.33;;
17171;SDS011;8701;50.150;8.756;2022-10-16T08:25:34;5.93;;;4.00;;
17171;SDS011;8701;50.150;8.756;2022-10-16T08:29:39;4.00;;;3.70;;
17171;SDS011;8701;50.150;8.756;2022-10-16T08:33:41;13.70;;;3.80;;
17171;SDS011;8701;50.150;8.756;2022-10-16T08:37:45;5.50;;;4.10;;
17171;SDS011;8701;50.150;8.756;2022-10-16T08:41:54;7.03;;;4.70;;
17171;SDS011;8701;50.150;8.756;2022-10-16T08:46:23;6.60;;;4.70;;
17171;SDS011;8701;50.150;8.756;2022-10-16T08:50:36;5.57;;;4.10;;
17171;SDS011;8701;50.150;8.756;2022-10-16T08:54:42;7.93;;;4.83;;
17171;SDS011;8701;50.150;8.756;2022-10-16T08:58:48;7.07;;;4.30;;
17171;SDS011;8701;50.150;8.756;2022-10-16T09:02:55;5.90;;;4.17;;
17171;SDS011;8701;50.150;8.756;2022-10-16T09:07:05;6.50;;;4.50;;
17171;SDS011;8701;50.150;8.756;2022-10-16T09:11:18;10.27;;;4.00;;
17171;SDS011;8701;50.150;8.756;2022-10-16T09:15:32;5.27;;;4.77;;
17171;SDS011;8701;50.150;8.756;2022-10-16T09:19:41;4.80;;;4.30;;
17171;SDS011;8701;50.150;8.756;2022-10-16T09:23:47;8.00;;;4.50;;
17171;SDS011;8701;50.150;8.756;2022-10-16T09:27:52;7.00;;;4.73;;
17171;SDS011;8701;50.150;8.756;2022-10-16T09:31:55;4.60;;;4.00;;
17171;SDS011;8701;50.150;8.756;2022-10-16T09:36:10;5.20;;;4.60;;
17171;SDS011;8701;50.150;8.756;2022-10-16T09:40:23;10.60;;;5.07;;
17171;SDS011;8701;50.150;8.756;2022-10-16T09:44:27;6.40;;;4.60;;
17171;SDS011;8701;50.150;8.756;2022-10-16T09:48:33;10.43;;;5.67;;
17171;SDS011;8701;50.150;8.756;2022-10-16T09:52:40;7.10;;;6.40;;
17171;SDS011;8701;50.150;8.756;2022-10-16T09:56:42;18.57;;;6.57;;
17171;SDS011;8701;50.150;8.756;2022-10-16T10:00:48;8.43;;;5.20;;
17171;SDS011;8701;50.150;8.756;2022-10-16T10:04:53;12.27;;;8.17;;
17171;SDS011;8701;50.150;8.756;2022-10-16T10:09:03;10.30;;;6.83;;
17171;SDS011;8701;50.150;8.756;2022-10-16T10:13:15;7.53;;;5.87;;
17171;SDS011;8701;50.150;8.756;2022-10-16T10:17:21;6.17;;;5.57;;
17171;SDS011;8701;50.150;8.756;2022-10-16T10:21:25;7.87;;;6.20;;
17171;SDS011;8701;50.150;8.756;2022-10-16T10:25:38;6.97;;;5.80;;
17171;SDS011;8701;50.150;8.756;2022-10-16T10:29:47;4.43;;;3.10;;
17171;SDS011;8701;50.150;8.756;2022-10-16T10:33:57;3.63;;;2.83;;
17171;SDS011;8701;50.150;8.756;2022-10-16T10:38:17;4.27;;;3.20;;
17171;SDS011;8701;50.150;8.756;2022-10-16T10:42:29;6.97;;;5.40;;
17171;SDS011;8701;50.150;8.756;2022-10-16T10:46:39;7.07;;;5.57;;
17171;SDS011;8701;50.150;8.756;2022-10-16T10:50:45;5.13;;;4.63;;
17171;SDS011;8701;50.150;8.756;2022-10-16T10:54:51;4.60;;;4.07;;
17171;SDS011;8701;50.150;8.756;2022-10-16T11:03:31;4.97;;;4.57;;
17171;SDS011;8701;50.150;8.756;2022-10-16T11:07:48;5.70;;;5.20;;
17171;SDS011;8701;50.150;8.756;2022-10-16T11:11:54;6.90;;;6.30;;
17171;SDS011;8701;50.150;8.756;2022-10-16T11:16:03;6.87;;;5.60;;
17171;SDS011;8701;50.150;8.756;2022-10-16T11:20:16;6.77;;;5.17;;
17171;SDS011;8701;50.150;8.756;2022-10-16T11:24:22;4.50;;;4.10;;
17171;SDS011;8701;50.150;8.756;2022-10-16T11:28:31;4.93;;;3.87;;
17171;SDS011;8701;50.150;8.756;2022-10-16T11:32:39;4.53;;;4.00;;
17171;SDS011;8701;50.150;8.756;2022-10-16T11:36:55;4.63;;;3.20;;
17171;SDS011;8701;50.150;8.756;2022-10-16T11:41:01;3.50;;;2.80;;
17171;SDS011;8701;50.150;8.756;2022-10-16T11:45:14;3.40;;;2.77;;
17171;SDS011;8701;50.150;8.756;2022-10-16T11:49:33;4.33;;;2.77;;
17171;SDS011;8701;50.150;8.756;2022-10-16T11:53:41;2.57;;;2.37;;
17171;SDS011;8701;50.150;8.756;2022-10-16T11:57:48;2.60;;;2.40;;
17171;SDS011;8701;50.150;8.756;2022-10-16T12:01:54;4.50;;;2.23;;
17171;SDS011;8701;50.150;8.756;2022-10-16T12:06:25;4.33;;;2.07;;
17171;SDS011;8701;50.150;8.756;2022-10-16T12:10:33;3.23;;;2.10;;
17171;SDS011;8701;50.150;8.756;2022-10-16T12:14:38;6.10;;;1.90;;
17171;SDS011;8701;50.150;8.756;2022-10-16T12:18:42;1.60;;;1.50;;
17171;SDS011;8701;50.150;8.756;2022-10-16T12:22:48;2.00;;;1.50;;
17171;SDS011;8701;50.150;8.756;2022-10-16T12:26:55;2.20;;;1.80;;
17171;SDS011;8701;50.150;8.756;2022-10-16T12:31:01;2.00;;;1.60;;
17171;SDS011;8701;50.150;8.756;2022-10-16T12:35:05;2.03;;;1.50;;
17171;SDS011;8701;50.150;8.756;2022-10-16T12:39:21;4.60;;;1.50;;
17171;SDS011;8701;50.150;8.756;2022-10-16T12:43:27;1.50;;;1.40;;
17171;SDS011;8701;50.150;8.756;2022-10-16T12:47:46;2.17;;;1.57;;
17171;SDS011;8701;50.150;8.756;2022-10-16T12:51:50;2.87;;;1.10;;
17171;SDS011;8701;50.150;8.756;2022-10-16T12:55:57;3.37;;;1.40;;
17171;SDS011;8701;50.150;8.756;2022-10-16T13:00:08;3.20;;;1.53;;
17171;SDS011;8701;50.150;8.756;2022-10-16T13:09:07;1.60;;;1.50;;
17171;SDS011;8701;50.150;8.756;2022-10-16T13:17:57;1.80;;;1.70;;
17171;SDS011;8701;50.150;8.756;2022-10-16T13:22:11;3.13;;;1.80;;
17171;SDS011;8701;50.150;8.756;2022-10-16T13:26:21;2.67;;;1.90;;
17171;SDS011;8701;50.150;8.756;2022-10-16T13:30:34;2.60;;;1.70;;
17171;SDS011;8701;50.150;8.756;2022-10-16T13:34:43;1.77;;;1.60;;
17171;SDS011;8701;50.150;8.756;2022-10-16T13:38:47;2.50;;;1.70;;
17171;SDS011;8701;50.150;8.756;2022-10-16T13:42:49;3.60;;;1.90;;
17171;SDS011;8701;50.150;8.756;2022-10-16T13:46:59;1.97;;;1.53;;
17171;SDS011;8701;50.150;8.756;2022-10-16T13:51:03;2.30;;;1.90;;
17171;SDS011;8701;50.150;8.756;2022-10-16T13:55:09;1.83;;;1.70;;
17171;SDS011;8701;50.150;8.756;2022-10-16T13:59:22;1.70;;;1.60;;
17171;SDS011;8701;50.150;8.756;2022-10-16T14:03:26;3.33;;;1.73;;
17171;SDS011;8701;50.150;8.756;2022-10-16T14:07:31;1.77;;;1.67;;
17171;SDS011;8701;50.150;8.756;2022-10-16T14:11:35;2.87;;;1.60;;
17171;SDS011;8701;50.150;8.756;2022-10-16T14:15:46;2.20;;;2.00;;
17171;SDS011;8701;50.150;8.756;2022-10-16T14:19:53;5.80;;;2.00;;
17171;SDS011;8701;50.150;8.756;2022-10-16T14:23:57;2.10;;;1.90;;
17171;SDS011;8701;50.150;8.756;2022-10-16T14:28:00;3.83;;;1.50;;
17171;SDS011;8701;50.150;8.756;2022-10-16T14:32:05;1.70;;;1.60;;
17171;SDS011;8701;50.150;8.756;2022-10-16T14:36:25;2.17;;;1.80;;
17171;SDS011;8701;50.150;8.756;2022-10-16T14:40:29;1.83;;;1.70;;
17171;SDS011;8701;50.150;8.756;2022-10-16T14:44:33;7.90;;;2.27;;
17171;SDS011;8701;50.150;8.756;2022-10-16T14:48:35;1.80;;;1.70;;
17171;SDS011;8701;50.150;8.756;2022-10-16T14:52:42;2.07;;;1.87;;
17171;SDS011;8701;50.150;8.756;2022-10-16T14:56:46;3.53;;;2.00;;
17171;SDS011;8701;50.150;8.756;2022-10-16T15:00:51;4.60;;;1.90;;
17171;SDS011;8701;50.150;8.756;2022-10-16T15:04:54;2.80;;;1.93;;
17171;SDS011;8701;50.150;8.756;2022-10-16T15:08:58;4.50;;;2.33;;
17171;SDS011;8701;50.150;8.756;2022-10-16T15:13:01;2.27;;;1.70;;
17171;SDS011;8701;50.150;8.756;2022-10-16T15:17:03;5.50;;;1.90;;
17171;SDS011;8701;50.150;8.756;2022-10-16T15:21:06;2.60;;;1.70;;
17171;SDS011;8701;50.150;8.756;2022-10-16T15:25:11;2.03;;;1.93;;
17171;SDS011;8701;50.150;8.756;2022-10-16T15:29:29;2.13;;;2.03;;
17171;SDS011;8701;50.150;8.756;2022-10-16T15:33:31;8.10;;;2.07;;
17171;SDS011;8701;50.150;8.756;2022-10-16T15:37:35;7.23;;;2.00;;
17171;SDS011;8701;50.150;8.756;2022-10-16T15:41:39;4.97;;;2.00;;
17171;SDS011;8701;50.150;8.756;2022-10-16T15:45:42;1.93;;;1.83;;
17171;SDS011;8701;50.150;8.756;2022-10-16T15:49:44;2.17;;;2.07;;
17171;SDS011;8701;50.150;8.756;2022-10-16T15:53:47;4.00;;;2.23;;
17171;SDS011;8701;50.150;8.756;2022-10-16T15:57:52;4.60;;;2.17;;
17171;SDS011;8701;50.150;8.756;2022-10-16T16:01:54;3.97;;;2.37;;
17171;SDS011;8701;50.150;8.756;2022-10-16T16:05:57;5.13;;;2.50;;
17171;SDS011;8701;50.150;8.756;2022-10-16T16:09:59;3.20;;;2.90;;
17171;SDS011;8701;50.150;8.756;2022-10-16T16:14:03;4.50;;;2.93;;
17171;SDS011;8701;50.150;8.756;2022-10-16T16:18:05;3.57;;;2.93;;
17171;SDS011;8701;50.150;8.756;2022-10-16T16:22:10;4.77;;;3.30;;
17171;SDS011;8701;50.150;8.756;2022-10-16T16:26:13;5.33;;;3.70;;
17171;SDS011;8701;50.150;8.756;2022-10-16T16:30:18;4.10;;;2.57;;
17171;SDS011;8701;50.150;8.756;2022-10-16T16:34:21;3.90;;;3.40;;
17171;SDS011;8701;50.150;8.756;2022-10-16T16:38:23;10.90;;;6.70;;
17171;SDS011;8701;50.150;8.756;2022-10-16T16:42:26;9.20;;;6.33;;
17171;SDS011;8701;50.150;8.756;2022-10-16T16:46:30;7.23;;;5.50;;
17171;SDS011;8701;50.150;8.756;2022-10-16T16:50:34;5.30;;;4.80;;
17171;SDS011;8701;50.150;8.756;2022-10-16T16:54:36;7.03;;;4.70;;
17171;SDS011;8701;50.150;8.756;2022-10-16T16:58:39;8.47;;;4.73;;
17171;SDS011;8701;50.150;8.756;2022-10-16T17:02:44;5.43;;;4.77;;
17171;SDS011;8701;50.150;8.756;2022-10-16T17:06:49;9.40;;;5.70;;
17171;SDS011;8701;50.150;8.756;2022-10-16T17:10:53;11.10;;;5.77;;
17171;SDS011;8701;50.150;8.756;2022-10-16T17:14:57;10.13;;;5.47;;
17171;SDS011;8701;50.150;8.756;2022-10-16T17:19:01;5.33;;;4.60;;
17171;SDS011;8701;50.150;8.756;2022-10-16T17:23:05;4.80;;;4.07;;
17171;SDS011;8701;50.150;8.756;2022-10-16T17:27:10;5.03;;;3.50;;
17171;SDS011;8701;50.150;8.756;2022-10-16T17:31:13;4.10;;;3.53;;
17171;SDS011;8701;50.150;8.756;2022-10-16T17:35:18;4.07;;;3.67;;
17171;SDS011;8701;50.150;8.756;2022-10-16T17:39:20;6.20;;;3.50;;
17171;SDS011;8701;50.150;8.756;2022-10-16T17:43:23;4.07;;;2.70;;
17171;SDS011;8701;50.150;8.756;2022-10-16T17:47:26;6.43;;;2.70;;
17171;SDS011;8701;50.150;8.756;2022-10-16T17:51:30;3.37;;;2.90;;
17171;SDS011;8701;50.150;8.756;2022-10-16T17:55:36;3.43;;;2.63;;
17171;SDS011;8701;50.150;8.756;2022-10-16T17:59:39;3.87;;;2.70;;
17171;SDS011;8701;50.150;8.756;2022-10-16T18:03:41;3.40;;;3.10;;
17171;SDS011;8701;50.150;8.756;2022-10-16T18:07:45;3.33;;;3.03;;
17171;SDS011;8701;50.150;8.756;2022-10-16T18:11:47;8.03;;;2.97;;
17171;SDS011;8701;50.150;8.756;2022-10-16T18:15:58;4.30;;;3.23;;
17171;SDS011;8701;50.150;8.756;2022-10-16T18:20:01;4.33;;;3.00;;
17171;SDS011;8701;50.150;8.756;2022-10-16T18:24:06;3.47;;;3.10;;
17171;SDS011;8701;50.150;8.756;2022-10-16T18:28:09;5.10;;;3.30;;
17171;SDS011;8701;50.150;8.756;2022-10-16T18:32:14;8.73;;;3.63;;
17171;SDS011;8701;50.150;8.756;2022-10-16T18:36:18;4.93;;;3.40;;
17171;SDS011;8701;50.150;8.756;2022-10-16T18:40:23;5.97;;;3.70;;
17171;SDS011;8701;50.150;8.756;2022-10-16T18:44:26;5.60;;;4.40;;
17171;SDS011;8701;50.150;8.756;2022-10-16T18:48:30;7.50;;;4.37;;
17171;SDS011;8701;50.150;8.756;2022-10-16T18:52:33;7.37;;;4.70;;
17171;SDS011;8701;50.150;8.756;2022-10-16T18:56:37;8.50;;;4.70;;
17171;SDS011;8701;50.150;8.756;2022-10-16T19:00:40;6.07;;;4.70;;
17171;SDS011;8701;50.150;8.756;2022-10-16T19:04:43;6.50;;;4.23;;
17171;SDS011;8701;50.150;8.756;2022-10-16T19:08:50;6.43;;;4.60;;
17171;SDS011;8701;50.150;8.756;2022-10-16T19:12:55;11.23;;;5.00;;
17171;SDS011;8701;50.150;8.756;2022-10-16T19:16:57;5.37;;;4.40;;
17171;SDS011;8701;50.150;8.756;2022-10-16T19:21:00;7.90;;;4.50;;
17171;SDS011;8701;50.150;8.756;2022-10-16T19:25:03;8.00;;;4.27;;
17171;SDS011;8701;50.150;8.756;2022-10-16T19:29:07;5.70;;;4.80;;
17171;SDS011;8701;50.150;8.756;2022-10-16T19:33:10;6.33;;;4.80;;
17171;SDS011;8701;50.150;8.756;2022-10-16T19:37:12;7.67;;;4.77;;
17171;SDS011;8701;50.150;8.756;2022-10-16T19:41:15;11.43;;;4.80;;
17171;SDS011;8701;50.150;8.756;2022-10-16T19:45:20;4.93;;;4.53;;
17171;SDS011;8701;50.150;8.756;2022-10-16T19:49:23;5.90;;;4.53;;
17171;SDS011;8701;50.150;8.756;2022-10-16T19:53:25;6.47;;;4.37;;
17171;SDS011;8701;50.150;8.756;2022-10-16T19:57:31;6.00;;;4.80;;
17171;SDS011;8701;50.150;8.756;2022-10-16T20:01:35;6.00;;;4.57;;
17171;SDS011;8701;50.150;8.756;2022-10-16T20:05:39;7.07;;;4.40;;
17171;SDS011;8701;50.150;8.756;2022-10-16T20:09:58;7.00;;;4.53;;
17171;SDS011;8701;50.150;8.756;2022-10-16T20:14:01;8.07;;;5.03;;
17171;SDS011;8701;50.150;8.756;2022-10-16T20:18:05;6.77;;;4.63;;
17171;SDS011;8701;50.150;8.756;2022-10-16T20:22:08;4.30;;;4.00;;
17171;SDS011;8701;50.150;8.756;2022-10-16T20:26:10;12.23;;;5.37;;
17171;SDS011;8701;50.150;8.756;2022-10-16T20:30:13;7.90;;;5.13;;
17171;SDS011;8701;50.150;8.756;2022-10-16T20:34:17;6.80;;;4.90;;
17171;SDS011;8701;50.150;8.756;2022-10-16T20:38:21;9.43;;;5.67;;
17171;SDS011;8701;50.150;8.756;2022-10-16T20:42:25;7.70;;;5.43;;
17171;SDS011;8701;50.150;8.756;2022-10-16T20:46:27;8.20;;;5.00;;
17171;SDS011;8701;50.150;8.756;2022-10-16T20:50:31;7.57;;;4.90;;
17171;SDS011;8701;50.150;8.756;2022-10-16T20:54:33;9.17;;;4.37;;
17171;SDS011;8701;50.150;8.756;2022-10-16T20:58:36;7.90;;;5.10;;
17171;SDS011;8701;50.150;8.756;2022-10-16T21:02:38;5.17;;;4.30;;
17171;SDS011;8701;50.150;8.756;2022-10-16T21:06:42;9.50;;;4.77;;
17171;SDS011;8701;50.150;8.756;2022-10-16T21:10:46;5.53;;;4.60;;
17171;SDS011;8701;50.150;8.756;2022-10-16T21:14:48;6.00;;;4.00;;
17171;SDS011;8701;50.150;8.756;2022-10-16T21:18:51;5.23;;;3.93;;
17171;SDS011;8701;50.150;8.756;2022-10-16T21:22:55;5.73;;;3.87;;
17171;SDS011;8701;50.150;8.756;2022-10-16T21:26:57;14.33;;;4.30;;
17171;SDS011;8701;50.150;8.756;2022-10-16T21:31:08;9.20;;;4.63;;
17171;SDS011;8701;50.150;8.756;2022-10-16T21:35:11;4.20;;;3.80;;
17171;SDS011;8701;50.150;8.756;2022-10-16T21:39:15;6.00;;;4.10;;
17171;SDS011;8701;50.150;8.756;2022-10-16T21:43:22;8.10;;;4.23;;
17171;SDS011;8701;50.150;8.756;2022-10-16T21:47:24;6.10;;;4.30;;
17171;SDS011;8701;50.150;8.756;2022-10-16T21:51:28;6.50;;;4.17;;
17171;SDS011;8701;50.150;8.756;2022-10-16T21:55:35;14.40;;;4.80;;
17171;SDS011;8701;50.150;8.756;2022-10-16T21:59:37;8.63;;;4.93;;
17171;SDS011;8701;50.150;8.756;2022-10-16T22:03:40;7.20;;;4.37;;
17171;SDS011;8701;50.150;8.756;2022-10-16T22:07:43;9.33;;;4.77;;
17171;SDS011;8701;50.150;8.756;2022-10-16T22:11:48;4.87;;;4.37;;
17171;SDS011;8701;50.150;8.756;2022-10-16T22:15:51;7.00;;;4.20;;
17171;SDS011;8701;50.150;8.756;2022-10-16T22:19:55;10.23;;;4.73;;
17171;SDS011;8701;50.150;8.756;2022-10-16T22:23:57;5.03;;;4.33;;
17171;SDS011;8701;50.150;8.756;2022-10-16T22:28:02;9.13;;;4.30;;
17171;SDS011;8701;50.150;8.756;2022-10-16T22:32:05;5.73;;;4.10;;
17171;SDS011;8701;50.150;8.756;2022-10-16T22:36:08;5.00;;;3.80;;
17171;SDS011;8701;50.150;8.756;2022-10-16T22:40:12;16.50;;;4.37;;
17171;SDS011;8701;50.150;8.756;2022-10-16T22:44:16;6.53;;;4.27;;
17171;SDS011;8701;50.150;8.756;2022-10-16T22:48:18;4.60;;;4.20;;
17171;SDS011;8701;50.150;8.756;2022-10-16T22:52:21;8.63;;;5.00;;
17171;SDS011;8701;50.150;8.756;2022-10-16T22:56:23;5.17;;;4.20;;
17171;SDS011;8701;50.150;8.756;2022-10-16T23:00:27;9.80;;;4.53;;
17171;SDS011;8701;50.150;8.756;2022-10-16T23:04:30;8.43;;;4.67;;
17171;SDS011;8701;50.150;8.756;2022-10-16T23:08:32;7.27;;;4.40;;
17171;SDS011;8701;50.150;8.756;2022-10-16T23:12:35;4.50;;;4.10;;
17171;SDS011;8701;50.150;8.756;2022-10-16T23:16:38;14.23;;;4.27;;
17171;SDS011;8701;50.150;8.756;2022-10-16T23:20:41;6.07;;;3.80;;
17171;SDS011;8701;50.150;8.756;2022-10-16T23:24:43;5.93;;;4.17;;
17171;SDS011;8701;50.150;8.756;2022-10-16T23:28:46;8.37;;;4.10;;
17171;SDS011;8701;50.150;8.756;2022-10-16T23:32:49;12.23;;;4.90;;
17171;SDS011;8701;50.150;8.756;2022-10-16T23:36:52;6.30;;;4.30;;
17171;SDS011;8701;50.150;8.756;2022-10-16T23:40:54;13.07;;;4.10;;
17171;SDS011;8701;50.150;8.756;2022-10-16T23:44:56;5.73;;;4.07;;
17171;SDS011;8701;50.150;8.756;2022-10-16T23:49:00;11.20;;;4.10;;
17171;SDS011;8701;50.150;8.756;2022-10-16T23:53:02;7.17;;;4.30;;
17171;SDS011;8701;50.150;8.756;2022-10-16T23:57:04;5.80;;;4.00;;
